Time,TemperatureF,DewpointF,PressureIn,WindDirection,WindDirectionDegrees,WindSpeedMPH,WindSpeedGustMPH,Humidity,HourlyPrecipIn,Conditions,Clouds,dailyrainin,SoftwareType,DateUTC
2013-03-13 00:00:00,19.8,14.4,30.27,SSW,202,0.0,-999.0,79,-99.99,,,0.00,Acu-Link.com,2013-03-13 05:00:00,
2013-03-13 00:15:00,18.9,13.8,30.27,SW,225,0.0,-999.0,80,-99.99,,,0.00,Acu-Link.com,2013-03-13 05:15:00,
2013-03-13 00:30:00,18.9,14.1,30.27,WSW,247,0.0,-999.0,81,-99.99,,,0.00,Acu-Link.com,2013-03-13 05:30:00,
2013-03-13 00:46:00,18.7,13.9,30.28,WSW,247,0.0,-999.0,81,-99.99,,,0.00,Acu-Link.com,2013-03-13 05:46:00,
2013-03-13 01:31:00,18.0,14.0,30.29,West,270,0.0,-999.0,84,-99.99,,,0.00,Acu-Link.com,2013-03-13 06:31:00,
2013-03-13 01:47:00,17.2,13.5,30.28,WSW,247,0.0,-999.0,85,-99.99,,,0.00,Acu-Link.com,2013-03-13 06:47:00,
2013-03-13 02:02:00,17.1,13.6,30.30,SW,225,0.0,-999.0,86,-99.99,,,0.00,Acu-Link.com,2013-03-13 07:02:00,
2013-03-13 02:17:00,16.5,13.6,30.28,NE,45,0.0,-999.0,88,-99.99,,,0.00,Acu-Link.com,2013-03-13 07:17:00,
2013-03-13 02:33:00,16.5,13.6,30.28,North,0,0.0,-999.0,88,-99.99,,,0.00,Acu-Link.com,2013-03-13 07:33:00,
2013-03-13 02:48:00,15.8,13.4,30.29,NNE,22,0.0,-999.0,90,-99.99,,,0.00,Acu-Link.com,2013-03-13 07:48:00,
2013-03-13 03:03:00,15.8,11.8,30.29,WSW,247,0.0,-999.0,84,-99.99,,,0.00,Acu-Link.com,2013-03-13 08:03:00,
2013-03-13 03:18:00,15.6,12.7,30.29,SW,225,0.0,-999.0,88,-99.99,,,0.00,Acu-Link.com,2013-03-13 08:18:00,
2013-03-13 03:34:00,15.3,12.9,30.28,NNE,22,0.0,-999.0,90,-99.99,,,0.00,Acu-Link.com,2013-03-13 08:34:00,
2013-03-13 03:49:00,14.9,12.8,30.28,West,270,0.0,-999.0,91,-99.99,,,0.00,Acu-Link.com,2013-03-13 08:49:00,
2013-03-13 04:04:00,15.1,11.9,30.29,SW,225,0.0,-999.0,87,-99.99,,,0.00,Acu-Link.com,2013-03-13 09:04:00,
2013-03-13 04:20:00,14.4,12.8,30.29,SSW,202,0.0,-999.0,93,-99.99,,,0.00,Acu-Link.com,2013-03-13 09:20:00,
2013-03-13 04:35:00,14.9,12.5,30.28,SW,225,0.0,-999.0,90,-99.99,,,0.00,Acu-Link.com,2013-03-13 09:35:00,
2013-03-13 04:50:00,14.7,12.6,30.28,SSW,202,0.0,-999.0,91,-99.99,,,0.00,Acu-Link.com,2013-03-13 09:50:00,
2013-03-13 05:05:00,15.1,12.7,30.29,SSE,157,0.0,-999.0,90,-99.99,,,0.00,Acu-Link.com,2013-03-13 10:05:00,
2013-03-13 05:20:00,15.1,12.5,30.28,SSE,157,0.0,-999.0,89,-99.99,,,0.00,Acu-Link.com,2013-03-13 10:20:00,
2013-03-13 05:36:00,14.9,12.3,30.27,SSE,157,0.0,-999.0,89,-99.99,,,0.00,Acu-Link.com,2013-03-13 10:36:00,
2013-03-13 05:51:00,15.4,14.0,30.27,SSE,157,0.0,-999.0,94,-99.99,,,0.00,Acu-Link.com,2013-03-13 10:51:00,
2013-03-13 06:06:00,17.1,15.7,30.27,NE,45,1.1,-999.0,94,-99.99,,,0.00,Acu-Link.com,2013-03-13 11:06:00,
2013-03-13 06:37:00,19.6,17.2,30.28,SW,225,0.0,-999.0,90,-99.99,,,0.00,Acu-Link.com,2013-03-13 11:37:00,
2013-03-13 06:52:00,19.9,17.4,30.28,SW,225,0.0,-999.0,90,-99.99,,,0.00,Acu-Link.com,2013-03-13 11:52:00,
2013-03-13 07:07:00,20.7,18.0,30.28,SW,225,1.1,-999.0,89,-99.99,,,0.00,Acu-Link.com,2013-03-13 12:07:00,
2013-03-13 07:23:00,21.2,18.2,30.28,South,180,0.0,-999.0,88,-99.99,,,0.00,Acu-Link.com,2013-03-13 12:23:00,
2013-03-13 07:38:00,22.1,18.6,30.28,South,180,1.7,-999.0,86,-99.99,,,0.00,Acu-Link.com,2013-03-13 12:38:00,
2013-03-13 07:53:00,22.6,18.8,30.28,SSW,202,0.0,-999.0,85,-99.99,,,0.00,Acu-Link.com,2013-03-13 12:53:00,
2013-03-13 08:09:00,23.4,19.6,30.29,SW,225,0.0,-999.0,85,-99.99,,,0.00,Acu-Link.com,2013-03-13 13:09:00,
2013-03-13 08:24:00,23.9,20.3,30.28,South,180,0.0,-999.0,86,-99.99,,,0.00,Acu-Link.com,2013-03-13 13:24:00,
2013-03-13 08:39:00,25.3,21.7,30.28,SE,135,1.7,-999.0,86,-99.99,,,0.00,Acu-Link.com,2013-03-13 13:39:00,
2013-03-13 08:55:00,26.6,21.0,30.29,SSW,202,0.0,-999.0,79,-99.99,,,0.00,Acu-Link.com,2013-03-13 13:55:00,
2013-03-13 09:10:00,28.6,21.1,30.29,SW,225,2.2,-999.0,73,-99.99,,,0.00,Acu-Link.com,2013-03-13 14:10:00,
2013-03-13 09:25:00,30.0,21.1,30.30,SE,135,1.1,-999.0,69,-99.99,,,0.00,Acu-Link.com,2013-03-13 14:25:00,
2013-03-13 09:40:00,30.0,20.4,30.30,SSE,157,2.2,-999.0,67,-99.99,,,0.00,Acu-Link.com,2013-03-13 14:40:00,
2013-03-13 10:11:00,32.5,20.9,30.31,ESE,112,3.2,-999.0,62,-99.99,,,0.00,Acu-Link.com,2013-03-13 15:11:00,
2013-03-13 10:26:00,34.2,21.8,30.31,South,180,2.7,-999.0,60,-99.99,,,0.00,Acu-Link.com,2013-03-13 15:26:00,
2013-03-13 10:41:00,35.4,19.5,30.30,SSW,202,3.7,-999.0,52,-99.99,,,0.00,Acu-Link.com,2013-03-13 15:41:00,
2013-03-13 11:12:00,36.7,19.8,30.29,ESE,112,4.7,-999.0,50,-99.99,,,0.00,Acu-Link.com,2013-03-13 16:12:00,
2013-03-13 11:27:00,37.6,19.7,30.28,SE,135,4.7,-999.0,48,-99.99,,,0.00,Acu-Link.com,2013-03-13 16:27:00,
2013-03-13 11:42:00,37.8,18.9,30.28,South,180,6.8,-999.0,46,-99.99,,,0.00,Acu-Link.com,2013-03-13 16:42:00,
2013-03-13 11:57:00,38.5,18.5,30.28,SSE,157,7.8,-999.0,44,-99.99,,,0.00,Acu-Link.com,2013-03-13 16:57:00,
2013-03-13 12:12:00,39.9,19.8,30.27,SE,135,7.3,-999.0,44,-99.99,,,0.00,Acu-Link.com,2013-03-13 17:12:00,
2013-03-13 12:27:00,42.3,20.3,30.26,SSW,202,5.3,-999.0,41,-99.99,,,0.00,Acu-Link.com,2013-03-13 17:27:00,
2013-03-13 12:42:00,43.2,21.1,30.26,South,180,6.3,-999.0,41,-99.99,,,0.00,Acu-Link.com,2013-03-13 17:42:00,
2013-03-13 12:57:00,44.8,22.0,30.25,SSW,202,6.3,-999.0,40,-99.99,,,0.00,Acu-Link.com,2013-03-13 17:57:00,
2013-03-13 13:13:00,44.4,21.0,30.24,SSE,157,6.3,-999.0,39,-99.99,,,0.00,Acu-Link.com,2013-03-13 18:13:00,
2013-03-13 13:28:00,45.9,23.5,30.24,SSW,202,4.7,-999.0,41,-99.99,,,0.00,Acu-Link.com,2013-03-13 18:28:00,
2013-03-13 13:43:00,46.4,23.4,30.23,SSE,157,7.3,-999.0,40,-99.99,,,0.00,Acu-Link.com,2013-03-13 18:43:00,
2013-03-13 13:58:00,46.8,24.4,30.22,South,180,7.3,-999.0,41,-99.99,,,0.00,Acu-Link.com,2013-03-13 18:58:00,
2013-03-13 14:14:00,46.4,24.6,30.22,SE,135,8.3,-999.0,42,-99.99,,,0.00,Acu-Link.com,2013-03-13 19:14:00,
2013-03-13 14:29:00,47.5,22.5,30.21,SSW,202,7.3,-999.0,37,-99.99,,,0.00,Acu-Link.com,2013-03-13 19:29:00,
2013-03-13 14:44:00,47.5,23.2,30.21,SSW,202,7.3,-999.0,38,-99.99,,,0.00,Acu-Link.com,2013-03-13 19:44:00,
2013-03-13 14:59:00,47.8,22.8,30.20,South,180,8.3,-999.0,37,-99.99,,,0.00,Acu-Link.com,2013-03-13 19:59:00,
2013-03-13 15:14:00,47.8,23.4,30.19,SSW,202,6.3,-999.0,38,-99.99,,,0.00,Acu-Link.com,2013-03-13 20:14:00,
2013-03-13 15:29:00,47.8,24.1,30.18,WNW,292,11.9,-999.0,39,-99.99,,,0.00,Acu-Link.com,2013-03-13 20:29:00,
2013-03-13 15:45:00,49.3,25.4,30.18,SSW,202,7.3,-999.0,39,-99.99,,,0.00,Acu-Link.com,2013-03-13 20:45:00,
2013-03-13 16:00:00,50.4,25.8,30.18,SW,225,3.7,-999.0,38,-99.99,,,0.00,Acu-Link.com,2013-03-13 21:00:00,
2013-03-13 16:16:00,50.5,25.2,30.18,South,180,8.9,-999.0,37,-99.99,,,0.00,Acu-Link.com,2013-03-13 21:16:00,
2013-03-13 16:31:00,50.0,25.4,30.17,SSW,202,4.2,-999.0,38,-99.99,,,0.00,Acu-Link.com,2013-03-13 21:31:00,
2013-03-13 16:46:00,49.5,25.6,30.17,South,180,6.3,-999.0,39,-99.99,,,0.00,Acu-Link.com,2013-03-13 21:46:00,
2013-03-13 17:01:00,49.8,26.5,30.15,South,180,4.7,-999.0,40,-99.99,,,0.00,Acu-Link.com,2013-03-13 22:01:00,
2013-03-13 17:16:00,48.6,26.6,30.15,SSW,202,6.3,-999.0,42,-99.99,,,0.00,Acu-Link.com,2013-03-13 22:16:00,
2013-03-13 17:32:00,50.0,27.8,30.14,South,180,6.3,-999.0,42,-99.99,,,0.00,Acu-Link.com,2013-03-13 22:32:00,
2013-03-13 17:47:00,49.1,28.1,30.13,SSW,202,7.3,-999.0,44,-99.99,,,0.00,Acu-Link.com,2013-03-13 22:47:00,
2013-03-13 18:02:00,48.4,28.6,30.13,SSE,157,8.3,-999.0,46,-99.99,,,0.00,Acu-Link.com,2013-03-13 23:02:00,
2013-03-13 18:17:00,47.3,29.1,30.12,South,180,6.3,-999.0,49,-99.99,,,0.00,Acu-Link.com,2013-03-13 23:17:00,
2013-03-13 18:32:00,46.4,28.3,30.12,SSW,202,6.8,-999.0,49,-99.99,,,0.00,Acu-Link.com,2013-03-13 23:32:00,
2013-03-13 18:47:00,45.3,28.3,30.12,SE,135,4.7,-999.0,51,-99.99,,,0.00,Acu-Link.com,2013-03-13 23:47:00,
2013-03-13 19:02:00,44.2,28.2,30.12,ESE,112,6.3,-999.0,53,-99.99,,,0.00,Acu-Link.com,2013-03-14 00:02:00,
2013-03-13 19:18:00,43.5,28.4,30.12,ESE,112,3.2,-999.0,55,-99.99,,,0.00,Acu-Link.com,2013-03-14 00:18:00,
2013-03-13 19:33:00,42.6,28.9,30.12,SSE,157,7.3,-999.0,58,-99.99,,,0.00,Acu-Link.com,2013-03-14 00:33:00,
2013-03-13 19:48:00,41.5,28.7,30.11,ENE,67,1.7,-999.0,60,-99.99,,,0.00,Acu-Link.com,2013-03-14 00:48:00,
2013-03-13 20:03:00,40.8,29.2,30.11,SSE,157,2.7,-999.0,63,-99.99,,,0.00,Acu-Link.com,2013-03-14 01:03:00,
2013-03-13 20:18:00,40.3,29.1,30.11,ESE,112,2.7,-999.0,64,-99.99,,,0.00,Acu-Link.com,2013-03-14 01:18:00,
2013-03-13 20:33:00,39.6,29.2,30.10,South,180,2.7,-999.0,66,-99.99,,,0.00,Acu-Link.com,2013-03-14 01:33:00,
2013-03-13 20:48:00,39.2,29.2,30.10,ESE,112,2.2,-999.0,67,-99.99,,,0.00,Acu-Link.com,2013-03-14 01:48:00,
2013-03-13 21:04:00,39.0,29.3,30.09,South,180,5.8,-999.0,68,-99.99,,,0.00,Acu-Link.com,2013-03-14 02:04:00,
2013-03-13 21:19:00,39.2,29.5,30.09,SSW,202,4.7,-999.0,68,-99.99,,,0.00,Acu-Link.com,2013-03-14 02:19:00,
2013-03-13 21:34:00,39.4,29.4,30.09,West,270,2.2,-999.0,67,-99.99,,,0.00,Acu-Link.com,2013-03-14 02:34:00,
2013-03-13 21:50:00,39.7,29.7,30.08,SSW,202,4.7,-999.0,67,-99.99,,,0.00,Acu-Link.com,2013-03-14 02:50:00,
2013-03-13 22:05:00,39.9,29.8,30.07,SSE,157,8.3,-999.0,67,-99.99,,,0.00,Acu-Link.com,2013-03-14 03:05:00,
2013-03-13 22:20:00,40.1,30.0,30.07,South,180,5.3,-999.0,67,-99.99,,,0.00,Acu-Link.com,2013-03-14 03:20:00,
2013-03-13 22:36:00,40.1,30.0,30.07,SSE,157,7.3,-999.0,67,-99.99,,,0.00,Acu-Link.com,2013-03-14 03:36:00,
2013-03-13 23:22:00,39.2,29.9,30.07,SSW,202,5.3,-999.0,69,-99.99,,,0.00,Acu-Link.com,2013-03-14 04:22:00,
2013-03-13 23:37:00,38.5,29.9,30.07,SSW,202,4.7,-999.0,71,-99.99,,,0.00,Acu-Link.com,2013-03-14 04:37:00,
2013-03-13 23:52:00,37.8,30.3,30.06,South,180,5.3,-999.0,74,-99.99,,,0.00,Acu-Link.com,2013-03-14 04:52:00,